sensor_id;sensor_type;location;lat;lon;timestamp;pressure;altitude;pressure_sealevel;temperature;humidity
50790;BME280;37287;47.554;7.844;2022-09-09T00:00:17;97620.47;;;12.36;100.00
50790;BME280;37287;47.554;7.844;2022-09-09T00:02:52;97602.97;;;12.37;100.00
50790;BME280;37287;47.554;7.844;2022-09-09T00:05:30;97619.28;;;12.41;100.00
50790;BME280;37287;47.554;7.844;2022-09-09T00:07:59;97618.91;;;12.38;100.00
50790;BME280;37287;47.554;7.844;2022-09-09T00:10:34;97623.53;;;12.42;100.00
50790;BME280;37287;47.554;7.844;2022-09-09T00:19:00;97661.50;;;12.52;100.00
50790;BME280;37287;47.554;7.844;2022-09-09T00:21:37;97666.97;;;12.42;100.00
50790;BME280;37287;47.554;7.844;2022-09-09T00:24:28;97640.63;;;12.38;100.00
50790;BME280;37287;47.554;7.844;2022-09-09T00:27:01;97651.47;;;12.35;100.00
50790;BME280;37287;47.554;7.844;2022-09-09T00:32:16;97637.88;;;12.42;100.00
50790;BME280;37287;47.554;7.844;2022-09-09T00:34:52;97634.38;;;12.45;100.00
50790;BME280;37287;47.554;7.844;2022-09-09T00:37:20;97625.81;;;12.47;100.00
50790;BME280;37287;47.554;7.844;2022-09-09T00:39:49;97621.22;;;12.40;100.00
50790;BME280;37287;47.554;7.844;2022-09-09T00:42:23;97615.41;;;12.38;100.00
50790;BME280;37287;47.554;7.844;2022-09-09T00:44:57;97621.22;;;12.40;100.00
50790;BME280;37287;47.554;7.844;2022-09-09T00:47:46;97637.13;;;12.42;100.00
50790;BME280;37287;47.554;7.844;2022-09-09T00:56:18;97618.44;;;12.51;100.00
50790;BME280;37287;47.554;7.844;2022-09-09T01:01:21;97608.72;;;12.61;100.00
50790;BME280;37287;47.554;7.844;2022-09-09T01:03:49;97608.69;;;12.64;100.00
50790;BME280;37287;47.554;7.844;2022-09-09T01:06:31;97609.06;;;12.70;100.00
50790;BME280;37287;47.554;7.844;2022-09-09T01:12:15;97609.81;;;12.74;100.00
50790;BME280;37287;47.554;7.844;2022-09-09T01:14:47;97636.59;;;12.76;100.00
50790;BME280;37287;47.554;7.844;2022-09-09T01:17:21;97674.97;;;12.81;100.00
50790;BME280;37287;47.554;7.844;2022-09-09T01:20:21;97665.28;;;12.80;100.00
50790;BME280;37287;47.554;7.844;2022-09-09T01:28:16;97646.69;;;12.71;100.00
50790;BME280;37287;47.554;7.844;2022-09-09T01:30:46;97642.81;;;12.69;100.00
50790;BME280;37287;47.554;7.844;2022-09-09T01:33:17;97644.38;;;12.70;100.00
50790;BME280;37287;47.554;7.844;2022-09-09T01:35:50;97650.97;;;12.72;100.00
50790;BME280;37287;47.554;7.844;2022-09-09T01:38:29;97643.97;;;12.71;100.00
50790;BME280;37287;47.554;7.844;2022-09-09T01:40:57;97644.75;;;12.72;100.00
50790;BME280;37287;47.554;7.844;2022-09-09T01:43:28;97630.00;;;12.73;100.00
50790;BME280;37287;47.554;7.844;2022-09-09T01:45:59;97637.03;;;12.67;100.00
50790;BME280;37287;47.554;7.844;2022-09-09T01:48:28;97640.09;;;12.69;100.00
50790;BME280;37287;47.554;7.844;2022-09-09T01:50:56;97645.13;;;12.70;100.00
50790;BME280;37287;47.554;7.844;2022-09-09T01:53:23;97644.38;;;12.70;100.00
50790;BME280;37287;47.554;7.844;2022-09-09T01:56:11;97638.16;;;12.73;100.00
50790;BME280;37287;47.554;7.844;2022-09-09T02:02:26;97642.81;;;12.72;100.00
50790;BME280;37287;47.554;7.844;2022-09-09T02:04:54;97645.13;;;12.74;100.00
50790;BME280;37287;47.554;7.844;2022-09-09T02:07:38;97634.25;;;12.74;100.00
50790;BME280;37287;47.554;7.844;2022-09-09T02:10:16;97637.38;;;12.72;100.00
50790;BME280;37287;47.554;7.844;2022-09-09T02:12:47;97640.47;;;12.71;100.00
50790;BME280;37287;47.554;7.844;2022-09-09T02:15:23;97641.66;;;12.70;100.00
50790;BME280;37287;47.554;7.844;2022-09-09T02:17:54;97638.94;;;12.70;100.00
50790;BME280;37287;47.554;7.844;2022-09-09T02:20:24;97639.69;;;12.70;100.00
50790;BME280;37287;47.554;7.844;2022-09-09T02:22:59;97637.38;;;12.72;100.00
50790;BME280;37287;47.554;7.844;2022-09-09T02:25:29;97638.16;;;12.73;100.00
50790;BME280;37287;47.554;7.844;2022-09-09T02:27:56;97637.38;;;12.72;100.00
50790;BME280;37287;47.554;7.844;2022-09-09T02:30:27;97634.63;;;12.76;100.00
50790;BME280;37287;47.554;7.844;2022-09-09T02:33:01;97632.31;;;12.78;100.00
50790;BME280;37287;47.554;7.844;2022-09-09T02:35:30;97625.69;;;12.83;100.00
50790;BME280;37287;47.554;7.844;2022-09-09T02:38:02;97631.47;;;12.88;100.00
50790;BME280;37287;47.554;7.844;2022-09-09T02:40:33;97629.50;;;12.93;100.00
50790;BME280;37287;47.554;7.844;2022-09-09T02:42:59;97620.97;;;12.94;100.00
50790;BME280;37287;47.554;7.844;2022-09-09T02:45:31;97622.13;;;12.97;100.00
50790;BME280;37287;47.554;7.844;2022-09-09T02:48:31;97609.28;;;13.01;100.00
50790;BME280;37287;47.554;7.844;2022-09-09T02:51:10;97606.56;;;13.01;100.00
50790;BME280;37287;47.554;7.844;2022-09-09T02:53:48;97628.66;;;13.06;100.00
50790;BME280;37287;47.554;7.844;2022-09-09T02:56:20;97623.19;;;13.10;100.00
50790;BME280;37287;47.554;7.844;2022-09-09T02:58:50;97625.13;;;13.10;100.00
50790;BME280;37287;47.554;7.844;2022-09-09T03:01:18;97620.84;;;13.12;100.00
50790;BME280;37287;47.554;7.844;2022-09-09T03:03:45;97618.13;;;13.12;100.00
50790;BME280;37287;47.554;7.844;2022-09-09T03:06:12;97622.38;;;13.13;100.00
50790;BME280;37287;47.554;7.844;2022-09-09T03:08:40;97616.53;;;13.15;100.00
50790;BME280;37287;47.554;7.844;2022-09-09T03:11:16;97618.50;;;13.14;100.00
50790;BME280;37287;47.554;7.844;2022-09-09T03:13:49;97626.25;;;13.16;100.00
50790;BME280;37287;47.554;7.844;2022-09-09T03:16:16;97624.31;;;13.16;100.00
50790;BME280;37287;47.554;7.844;2022-09-09T03:18:42;97624.69;;;13.18;100.00
50790;BME280;37287;47.554;7.844;2022-09-09T03:21:13;97619.25;;;13.18;100.00
50790;BME280;37287;47.554;7.844;2022-09-09T03:23:41;97622.72;;;13.19;100.00
50790;BME280;37287;47.554;7.844;2022-09-09T03:26:07;97618.47;;;13.18;100.00
50790;BME280;37287;47.554;7.844;2022-09-09T03:28:34;97624.69;;;13.18;100.00
50790;BME280;37287;47.554;7.844;2022-09-09T03:31:04;97623.53;;;13.19;100.00
50790;BME280;37287;47.554;7.844;2022-09-09T03:33:31;97623.94;;;13.18;100.00
50790;BME280;37287;47.554;7.844;2022-09-09T03:36:05;97621.59;;;13.16;100.00
50790;BME280;37287;47.554;7.844;2022-09-09T03:38:33;97620.81;;;13.16;100.00
50790;BME280;37287;47.554;7.844;2022-09-09T03:41:01;97617.75;;;13.14;100.00
50790;BME280;37287;47.554;7.844;2022-09-09T03:43:30;97613.09;;;13.11;100.00
50790;BME280;37287;47.554;7.844;2022-09-09T03:45:57;97607.69;;;13.07;100.00
50790;BME280;37287;47.554;7.844;2022-09-09T03:48:24;97608.84;;;13.06;100.00
50790;BME280;37287;47.554;7.844;2022-09-09T03:50:54;97612.75;;;13.05;100.00
50790;BME280;37287;47.554;7.844;2022-09-09T03:53:24;97607.69;;;13.03;100.00
50790;BME280;37287;47.554;7.844;2022-09-09T03:55:53;97609.28;;;13.01;100.00
50790;BME280;37287;47.554;7.844;2022-09-09T03:58:22;97607.72;;;13.00;100.00
50790;BME280;37287;47.554;7.844;2022-09-09T04:00:58;97610.81;;;13.02;100.00
50790;BME280;37287;47.554;7.844;2022-09-09T04:03:28;97608.09;;;13.02;100.00
50790;BME280;37287;47.554;7.844;2022-09-09T04:05:57;97604.22;;;13.03;100.00
50790;BME280;37287;47.554;7.844;2022-09-09T04:08:24;97606.16;;;13.02;100.00
50790;BME280;37287;47.554;7.844;2022-09-09T04:10:55;97600.72;;;13.02;100.00
50790;BME280;37287;47.554;7.844;2022-09-09T04:13:25;97601.88;;;13.05;100.00
50790;BME280;37287;47.554;7.844;2022-09-09T04:15:57;97610.78;;;13.05;100.00
50790;BME280;37287;47.554;7.844;2022-09-09T04:18:27;97619.34;;;13.04;100.00
50790;BME280;37287;47.554;7.844;2022-09-09T04:20:55;97617.41;;;13.04;100.00
50790;BME280;37287;47.554;7.844;2022-09-09T04:23:26;97609.25;;;13.04;100.00
50790;BME280;37287;47.554;7.844;2022-09-09T04:25:56;97617.78;;;13.03;100.00
50790;BME280;37287;47.554;7.844;2022-09-09T04:28:25;97618.56;;;13.03;100.00
50790;BME280;37287;47.554;7.844;2022-09-09T04:30:54;97622.47;;;13.02;100.00
50790;BME280;37287;47.554;7.844;2022-09-09T04:33:27;97624.41;;;13.02;100.00
50790;BME280;37287;47.554;7.844;2022-09-09T04:35:54;97617.03;;;12.99;100.00
50790;BME280;37287;47.554;7.844;2022-09-09T04:38:21;97623.63;;;12.98;100.00
50790;BME280;37287;47.554;7.844;2022-09-09T04:40:51;97620.16;;;13.01;100.00
50790;BME280;37287;47.554;7.844;2022-09-09T04:43:19;97624.41;;;13.02;100.00
50790;BME280;37287;47.554;7.844;2022-09-09T04:45:48;97625.53;;;13.04;100.00
50790;BME280;37287;47.554;7.844;2022-09-09T04:48:20;97629.06;;;13.05;100.00
50790;BME280;37287;47.554;7.844;2022-09-09T04:51:13;97630.16;;;13.11;100.00
50790;BME280;37287;47.554;7.844;2022-09-09T04:53:42;97623.19;;;13.10;100.00
50790;BME280;37287;47.554;7.844;2022-09-09T04:56:14;97626.69;;;13.11;100.00
50790;BME280;37287;47.554;7.844;2022-09-09T04:58:41;97627.06;;;13.13;100.00
50790;BME280;37287;47.554;7.844;2022-09-09T05:01:20;97632.50;;;13.13;100.00
50790;BME280;37287;47.554;7.844;2022-09-09T05:03:50;97634.03;;;13.14;100.00
50790;BME280;37287;47.554;7.844;2022-09-09T05:06:21;97627.44;;;13.11;100.00
50790;BME280;37287;47.554;7.844;2022-09-09T05:08:48;97631.34;;;13.10;100.00
50790;BME280;37287;47.554;7.844;2022-09-09T05:11:24;97629.78;;;13.09;100.00
50790;BME280;37287;47.554;7.844;2022-09-09T05:13:54;97630.94;;;13.15;100.00
50790;BME280;37287;47.554;7.844;2022-09-09T05:16:23;97634.41;;;13.19;100.00
50790;BME280;37287;47.554;7.844;2022-09-09T05:18:50;97633.50;;;13.37;100.00
50790;BME280;37287;47.554;7.844;2022-09-09T05:21:19;97627.13;;;13.62;100.00
50790;BME280;37287;47.554;7.844;2022-09-09T05:23:46;97632.16;;;14.05;100.00
50790;BME280;37287;47.554;7.844;2022-09-09T05:26:15;97627.91;;;14.38;100.00
50790;BME280;37287;47.554;7.844;2022-09-09T05:28:45;97624.00;;;14.74;100.00
50790;BME280;37287;47.554;7.844;2022-09-09T05:31:15;97628.06;;;14.62;100.00
50790;BME280;37287;47.554;7.844;2022-09-09T05:33:44;97633.59;;;14.51;100.00
50790;BME280;37287;47.554;7.844;2022-09-09T05:36:14;97639.78;;;14.55;100.00
50790;BME280;37287;47.554;7.844;2022-09-09T05:38:42;97638.31;;;14.47;100.00
50790;BME280;37287;47.554;7.844;2022-09-09T05:41:10;97634.16;;;14.70;100.00
50790;BME280;37287;47.554;7.844;2022-09-09T05:43:38;97638.28;;;14.51;100.00
50790;BME280;37287;47.554;7.844;2022-09-09T05:46:06;97634.16;;;14.35;100.00
50790;BME280;37287;47.554;7.844;2022-09-09T05:48:36;97628.41;;;14.30;100.00
50790;BME280;37287;47.554;7.844;2022-09-09T05:51:08;97633.84;;;14.30;100.00
50790;BME280;37287;47.554;7.844;2022-09-09T05:53:37;97627.66;;;14.25;100.00
50790;BME280;37287;47.554;7.844;2022-09-09T05:56:06;97628.50;;;14.19;100.00
50790;BME280;37287;47.554;7.844;2022-09-09T05:58:34;97636.69;;;14.15;100.00
50790;BME280;37287;47.554;7.844;2022-09-09T06:01:22;97648.00;;;14.14;100.00
50790;BME280;37287;47.554;7.844;2022-09-09T06:03:50;97651.50;;;14.14;100.00
50790;BME280;37287;47.554;7.844;2022-09-09T06:06:36;97652.66;;;14.51;100.00
50790;BME280;37287;47.554;7.844;2022-09-09T06:09:08;97657.09;;;14.72;100.00
50790;BME280;37287;47.554;7.844;2022-09-09T06:11:39;97655.16;;;15.82;100.00
50790;BME280;37287;47.554;7.844;2022-09-09T06:14:06;97655.09;;;16.29;100.00
50790;BME280;37287;47.554;7.844;2022-09-09T06:16:34;97650.09;;;17.05;100.00
50790;BME280;37287;47.554;7.844;2022-09-09T06:19:01;97653.19;;;17.23;96.33
50790;BME280;37287;47.554;7.844;2022-09-09T06:21:32;97652.91;;;17.01;97.77
50790;BME280;37287;47.554;7.844;2022-09-09T06:24:04;97651.44;;;16.96;99.63
50790;BME280;37287;47.554;7.844;2022-09-09T06:26:35;97651.34;;;17.53;98.98
50790;BME280;37287;47.554;7.844;2022-09-09T06:29:03;97646.38;;;18.69;95.59
50790;BME280;37287;47.554;7.844;2022-09-09T06:31:31;97664.13;;;19.84;86.88
50790;BME280;37287;47.554;7.844;2022-09-09T06:34:01;97657.94;;;20.50;82.18
50790;BME280;37287;47.554;7.844;2022-09-09T06:36:29;97660.75;;;20.81;80.36
50790;BME280;37287;47.554;7.844;2022-09-09T06:38:57;97666.66;;;21.33;78.14
50790;BME280;37287;47.554;7.844;2022-09-09T06:41:27;97662.06;;;21.30;77.42
50790;BME280;37287;47.554;7.844;2022-09-09T06:43:54;97657.91;;;21.57;76.19
50790;BME280;37287;47.554;7.844;2022-09-09T06:46:30;97656.84;;;21.73;76.08
50790;BME280;37287;47.554;7.844;2022-09-09T06:48:59;97664.81;;;21.21;75.16
50790;BME280;37287;47.554;7.844;2022-09-09T06:51:34;97661.31;;;21.29;76.65
50790;BME280;37287;47.554;7.844;2022-09-09T06:54:02;97663.44;;;21.25;77.53
50790;BME280;37287;47.554;7.844;2022-09-09T06:56:36;97670.38;;;21.39;74.67
50790;BME280;37287;47.554;7.844;2022-09-09T06:59:05;97677.06;;;20.98;77.54
50790;BME280;37287;47.554;7.844;2022-09-09T07:01:37;97679.72;;;19.87;80.49
50790;BME280;37287;47.554;7.844;2022-09-09T07:04:09;97684.44;;;18.96;85.26
50790;BME280;37287;47.554;7.844;2022-09-09T07:06:39;97690.63;;;18.42;89.08
50790;BME280;37287;47.554;7.844;2022-09-09T07:09:09;97683.34;;;18.35;90.90
50790;BME280;37287;47.554;7.844;2022-09-09T07:11:41;97681.19;;;17.97;92.28
50790;BME280;37287;47.554;7.844;2022-09-09T07:14:08;97688.16;;;18.01;94.71
50790;BME280;37287;47.554;7.844;2022-09-09T07:16:35;97670.66;;;17.46;94.43
50790;BME280;37287;47.554;7.844;2022-09-09T07:19:08;97677.31;;;17.28;97.63
50790;BME280;37287;47.554;7.844;2022-09-09T07:21:34;97683.75;;;17.01;99.46
50790;BME280;37287;47.554;7.844;2022-09-09T07:24:01;97686.16;;;16.99;100.00
50790;BME280;37287;47.554;7.844;2022-09-09T07:26:32;97681.44;;;17.69;100.00
50790;BME280;37287;47.554;7.844;2022-09-09T07:29:06;97697.44;;;19.21;95.08
50790;BME280;37287;47.554;7.844;2022-09-09T07:31:35;97692.47;;;19.55;87.96
50790;BME280;37287;47.554;7.844;2022-09-09T07:34:03;97694.47;;;19.41;86.84
50790;BME280;37287;47.554;7.844;2022-09-09T07:36:32;97697.69;;;20.14;84.54
50790;BME280;37287;47.554;7.844;2022-09-09T07:39:05;97699.63;;;20.83;81.90
50790;BME280;37287;47.554;7.844;2022-09-09T07:41:38;97688.69;;;20.70;80.65
50790;BME280;37287;47.554;7.844;2022-09-09T07:44:08;97699.84;;;20.98;82.58
50790;BME280;37287;47.554;7.844;2022-09-09T07:46:35;97695.28;;;21.26;77.03
50790;BME280;37287;47.554;7.844;2022-09-09T07:49:02;97702.44;;;21.24;79.19
50790;BME280;37287;47.554;7.844;2022-09-09T07:51:34;97701.34;;;22.30;75.53
50790;BME280;37287;47.554;7.844;2022-09-09T07:54:07;97703.13;;;23.17;71.16
50790;BME280;37287;47.554;7.844;2022-09-09T07:56:38;97704.28;;;23.68;70.35
50790;BME280;37287;47.554;7.844;2022-09-09T07:59:07;97713.75;;;24.73;64.76
50790;BME280;37287;47.554;7.844;2022-09-09T08:01:38;97720.41;;;24.66;63.92
50790;BME280;37287;47.554;7.844;2022-09-09T08:04:10;97716.69;;;23.48;66.25
50790;BME280;37287;47.554;7.844;2022-09-09T08:06:47;97712.81;;;23.79;67.87
50790;BME280;37287;47.554;7.844;2022-09-09T08:09:15;97720.69;;;24.29;65.30
50790;BME280;37287;47.554;7.844;2022-09-09T08:11:42;97720.66;;;24.53;65.12
50790;BME280;37287;47.554;7.844;2022-09-09T08:14:10;97723.03;;;24.21;64.71
50790;BME280;37287;47.554;7.844;2022-09-09T08:16:42;97717.16;;;25.28;63.15
50790;BME280;37287;47.554;7.844;2022-09-09T08:19:09;97723.34;;;26.03;59.08
50790;BME280;37287;47.554;7.844;2022-09-09T08:21:37;97726.88;;;24.00;61.31
50790;BME280;37287;47.554;7.844;2022-09-09T08:24:08;97729.56;;;24.09;63.24
50790;BME280;37287;47.554;7.844;2022-09-09T08:26:39;97729.88;;;25.19;60.76
50790;BME280;37287;47.554;7.844;2022-09-09T08:29:09;97725.97;;;25.41;59.46
50790;BME280;37287;47.554;7.844;2022-09-09T08:31:53;97719.47;;;26.15;56.64
50790;BME280;37287;47.554;7.844;2022-09-09T08:34:21;97719.72;;;26.58;54.85
50790;BME280;37287;47.554;7.844;2022-09-09T08:36:49;97731.63;;;25.82;57.31
50790;BME280;37287;47.554;7.844;2022-09-09T08:39:18;97729.44;;;25.21;59.34
50790;BME280;37287;47.554;7.844;2022-09-09T08:53:03;97716.69;;;26.36;51.12
50790;BME280;37287;47.554;7.844;2022-09-09T08:58:20;97731.53;;;26.74;51.83
50790;BME280;37287;47.554;7.844;2022-09-09T09:09:48;97730.75;;;24.17;55.21
50790;BME280;37287;47.554;7.844;2022-09-09T09:12:29;97726.13;;;24.63;59.30
50790;BME280;37287;47.554;7.844;2022-09-09T09:14:56;97721.41;;;25.38;55.79
50790;BME280;37287;47.554;7.844;2022-09-09T09:17:25;97723.78;;;25.15;54.47
50790;BME280;37287;47.554;7.844;2022-09-09T09:19:55;97727.69;;;24.94;54.74
50790;BME280;37287;47.554;7.844;2022-09-09T09:22:52;97721.03;;;23.98;52.52
50790;BME280;37287;47.554;7.844;2022-09-09T09:25:20;97713.72;;;23.61;55.74
50790;BME280;37287;47.554;7.844;2022-09-09T09:28:17;97715.00;;;22.62;56.54
50790;BME280;37287;47.554;7.844;2022-09-09T09:30:51;97710.53;;;22.27;60.36
50790;BME280;37287;47.554;7.844;2022-09-09T09:33:34;97711.63;;;22.67;55.71
50790;BME280;37287;47.554;7.844;2022-09-09T09:36:07;97714.22;;;23.50;56.82
50790;BME280;37287;47.554;7.844;2022-09-09T09:38:36;97718.03;;;23.01;52.93
50790;BME280;37287;47.554;7.844;2022-09-09T09:41:35;97710.47;;;23.63;50.72
50790;BME280;37287;47.554;7.844;2022-09-09T09:44:03;97716.88;;;24.42;52.11
50790;BME280;37287;47.554;7.844;2022-09-09T09:46:31;97706.53;;;24.12;50.17
50790;BME280;37287;47.554;7.844;2022-09-09T09:49:03;97693.59;;;23.18;51.84
50790;BME280;37287;47.554;7.844;2022-09-09T09:51:33;97708.34;;;23.15;52.84
50790;BME280;37287;47.554;7.844;2022-09-09T09:54:27;97696.75;;;22.74;47.64
50790;BME280;37287;47.554;7.844;2022-09-09T09:56:56;97696.28;;;22.75;50.47
50790;BME280;37287;47.554;7.844;2022-09-09T09:59:35;97690.78;;;22.75;53.59
50790;BME280;37287;47.554;7.844;2022-09-09T10:02:13;97685.56;;;22.68;53.36
50790;BME280;37287;47.554;7.844;2022-09-09T10:04:40;97691.50;;;21.83;49.97
50790;BME280;37287;47.554;7.844;2022-09-09T10:07:20;97690.94;;;22.53;49.39
50790;BME280;37287;47.554;7.844;2022-09-09T10:09:55;97688.22;;;22.44;48.25
50790;BME280;37287;47.554;7.844;2022-09-09T10:12:52;97682.94;;;22.83;46.73
50790;BME280;37287;47.554;7.844;2022-09-09T10:21:04;97675.00;;;22.66;45.93
50790;BME280;37287;47.554;7.844;2022-09-09T10:29:39;97654.06;;;25.02;43.12
50790;BME280;37287;47.554;7.844;2022-09-09T10:35:09;97660.44;;;25.73;41.15
50790;BME280;37287;47.554;7.844;2022-09-09T10:37:49;97655.09;;;26.32;43.16
50790;BME280;37287;47.554;7.844;2022-09-09T10:40:38;97654.72;;;25.83;42.23
50790;BME280;37287;47.554;7.844;2022-09-09T10:45:54;97653.69;;;25.80;42.68
50790;BME280;37287;47.554;7.844;2022-09-09T10:51:02;97646.31;;;25.06;43.19
50790;BME280;37287;47.554;7.844;2022-09-09T10:53:48;97638.38;;;25.64;43.31
50790;BME280;37287;47.554;7.844;2022-09-09T10:56:21;97637.00;;;26.16;40.90
50790;BME280;37287;47.554;7.844;2022-09-09T10:58:58;97635.41;;;26.82;42.01
50790;BME280;37287;47.554;7.844;2022-09-09T11:01:52;97631.69;;;26.65;40.82
50790;BME280;37287;47.554;7.844;2022-09-09T11:04:37;97637.78;;;25.24;39.66
50790;BME280;37287;47.554;7.844;2022-09-09T11:07:10;97630.34;;;24.41;40.56
50790;BME280;37287;47.554;7.844;2022-09-09T11:09:43;97635.03;;;24.50;43.91
50790;BME280;37287;47.554;7.844;2022-09-09T11:12:18;97623.25;;;23.86;45.28
50790;BME280;37287;47.554;7.844;2022-09-09T11:15:08;97631.56;;;23.62;43.73
50790;BME280;37287;47.554;7.844;2022-09-09T11:17:47;97624.00;;;24.95;42.72
50790;BME280;37287;47.554;7.844;2022-09-09T11:20:16;97618.66;;;24.76;40.46
50790;BME280;37287;47.554;7.844;2022-09-09T11:25:26;97606.31;;;25.07;41.29
50790;BME280;37287;47.554;7.844;2022-09-09T11:34:07;97609.34;;;24.19;39.88
50790;BME280;37287;47.554;7.844;2022-09-09T11:39:47;97618.84;;;24.58;39.94
50790;BME280;37287;47.554;7.844;2022-09-09T11:42:23;97618.88;;;25.38;40.55
50790;BME280;37287;47.554;7.844;2022-09-09T11:44:51;97622.00;;;25.31;39.59
50790;BME280;37287;47.554;7.844;2022-09-09T11:47:23;97624.97;;;24.92;40.02
50790;BME280;37287;47.554;7.844;2022-09-09T11:49:52;97629.31;;;24.53;42.58
50790;BME280;37287;47.554;7.844;2022-09-09T11:52:38;97623.44;;;25.41;41.39
50790;BME280;37287;47.554;7.844;2022-09-09T11:55:24;97630.56;;;26.04;39.77
50790;BME280;37287;47.554;7.844;2022-09-09T11:58:02;97624.09;;;26.59;39.81
50790;BME280;37287;47.554;7.844;2022-09-09T12:00:39;97629.38;;;27.21;39.24
50790;BME280;37287;47.554;7.844;2022-09-09T12:06:31;97630.03;;;25.44;40.08
50790;BME280;37287;47.554;7.844;2022-09-09T12:11:43;97620.75;;;25.67;42.71
50790;BME280;37287;47.554;7.844;2022-09-09T12:17:24;97622.63;;;25.05;40.20
50790;BME280;37287;47.554;7.844;2022-09-09T12:20:17;97616.88;;;25.23;41.36
50790;BME280;37287;47.554;7.844;2022-09-09T12:22:47;97610.91;;;25.31;41.14
50790;BME280;37287;47.554;7.844;2022-09-09T12:25:32;97614.94;;;25.30;38.86
50790;BME280;37287;47.554;7.844;2022-09-09T12:28:22;97605.69;;;25.18;40.15
50790;BME280;37287;47.554;7.844;2022-09-09T12:30:56;97612.44;;;25.67;40.12
50790;BME280;37287;47.554;7.844;2022-09-09T12:33:36;97616.19;;;26.05;40.24
50790;BME280;37287;47.554;7.844;2022-09-09T12:36:06;97615.53;;;26.37;39.96
50790;BME280;37287;47.554;7.844;2022-09-09T12:38:40;97612.53;;;26.67;40.38
50790;BME280;37287;47.554;7.844;2022-09-09T12:41:19;97619.78;;;26.58;38.42
50790;BME280;37287;47.554;7.844;2022-09-09T12:43:51;97618.38;;;26.69;40.81
50790;BME280;37287;47.554;7.844;2022-09-09T12:46:32;97612.97;;;26.33;37.92
50790;BME280;37287;47.554;7.844;2022-09-09T12:48:59;97606.34;;;26.51;39.31
50790;BME280;37287;47.554;7.844;2022-09-09T12:51:31;97600.34;;;25.65;38.91
50790;BME280;37287;47.554;7.844;2022-09-09T12:53:59;97602.19;;;25.17;38.77
50790;BME280;37287;47.554;7.844;2022-09-09T12:56:30;97607.53;;;25.06;39.83
50790;BME280;37287;47.554;7.844;2022-09-09T12:58:59;97604.28;;;25.08;41.61
50790;BME280;37287;47.554;7.844;2022-09-09T13:01:31;97607.56;;;24.46;41.79
50790;BME280;37287;47.554;7.844;2022-09-09T13:04:01;97607.22;;;23.99;42.56
50790;BME280;37287;47.554;7.844;2022-09-09T13:06:29;97610.84;;;23.81;42.92
50790;BME280;37287;47.554;7.844;2022-09-09T13:08:59;97611.75;;;23.63;44.44
50790;BME280;37287;47.554;7.844;2022-09-09T13:11:38;97607.97;;;23.27;44.88
50790;BME280;37287;47.554;7.844;2022-09-09T13:14:19;97611.22;;;22.64;45.60
50790;BME280;37287;47.554;7.844;2022-09-09T13:16:57;97607.59;;;22.30;45.45
50790;BME280;37287;47.554;7.844;2022-09-09T13:19:25;97609.75;;;22.17;46.92
50790;BME280;37287;47.554;7.844;2022-09-09T13:21:54;97615.84;;;22.03;45.72
50790;BME280;37287;47.554;7.844;2022-09-09T13:24:34;97625.78;;;21.81;45.54
50790;BME280;37287;47.554;7.844;2022-09-09T13:27:26;97621.69;;;21.27;46.65
50790;BME280;37287;47.554;7.844;2022-09-09T13:29:54;97627.34;;;20.92;47.75
50790;BME280;37287;47.554;7.844;2022-09-09T13:32:25;97620.53;;;20.74;47.59
50790;BME280;37287;47.554;7.844;2022-09-09T13:34:59;97617.16;;;20.70;48.32
50790;BME280;37287;47.554;7.844;2022-09-09T13:39:59;97610.03;;;21.63;47.45
50790;BME280;37287;47.554;7.844;2022-09-09T13:42:30;97608.06;;;22.10;46.60
50790;BME280;37287;47.554;7.844;2022-09-09T13:45:01;97596.41;;;22.53;45.97
50790;BME280;37287;47.554;7.844;2022-09-09T13:47:32;97595.00;;;23.00;44.81
50790;BME280;37287;47.554;7.844;2022-09-09T13:52:56;97590.38;;;24.12;42.46
50790;BME280;37287;47.554;7.844;2022-09-09T13:55:28;97594.75;;;24.19;41.34
50790;BME280;37287;47.554;7.844;2022-09-09T13:58:02;97590.00;;;24.49;42.83
50790;BME280;37287;47.554;7.844;2022-09-09T14:00:31;97595.56;;;24.79;40.52
50790;BME280;37287;47.554;7.844;2022-09-09T14:02:58;97590.00;;;24.49;42.20
50790;BME280;37287;47.554;7.844;2022-09-09T14:05:30;97581.03;;;24.40;41.08
50790;BME280;37287;47.554;7.844;2022-09-09T14:08:00;97583.84;;;24.00;41.30
50790;BME280;37287;47.554;7.844;2022-09-09T14:10:27;97586.00;;;24.20;42.35
50790;BME280;37287;47.554;7.844;2022-09-09T14:12:53;97574.34;;;24.16;40.53
50790;BME280;37287;47.554;7.844;2022-09-09T14:15:20;97576.25;;;23.86;42.91
50790;BME280;37287;47.554;7.844;2022-09-09T14:17:48;97576.06;;;24.44;42.76
50790;BME280;37287;47.554;7.844;2022-09-09T14:20:15;97573.13;;;24.62;42.92
50790;BME280;37287;47.554;7.844;2022-09-09T14:22:44;97572.66;;;24.79;42.73
50790;BME280;37287;47.554;7.844;2022-09-09T14:25:11;97561.19;;;24.86;40.86
50790;BME280;37287;47.554;7.844;2022-09-09T14:27:39;97556.63;;;24.68;40.79
50790;BME280;37287;47.554;7.844;2022-09-09T14:30:09;97559.78;;;24.61;42.01
50790;BME280;37287;47.554;7.844;2022-09-09T14:32:35;97568.63;;;24.80;42.78
50790;BME280;37287;47.554;7.844;2022-09-09T14:35:04;97566.31;;;24.93;40.76
50790;BME280;37287;47.554;7.844;2022-09-09T14:37:31;97560.81;;;24.78;39.55
50790;BME280;37287;47.554;7.844;2022-09-09T14:39:58;97555.66;;;24.41;41.62
50790;BME280;37287;47.554;7.844;2022-09-09T14:42:26;97566.06;;;24.31;41.19
50790;BME280;37287;47.554;7.844;2022-09-09T14:44:53;97560.66;;;23.98;42.77
50790;BME280;37287;47.554;7.844;2022-09-09T14:47:19;97558.84;;;23.56;42.72
50790;BME280;37287;47.554;7.844;2022-09-09T14:49:52;97557.94;;;24.13;42.18
50790;BME280;37287;47.554;7.844;2022-09-09T14:52:19;97566.66;;;23.96;41.27
50790;BME280;37287;47.554;7.844;2022-09-09T14:54:46;97571.75;;;23.49;42.71
50790;BME280;37287;47.554;7.844;2022-09-09T14:57:14;97569.59;;;23.53;42.22
50790;BME280;37287;47.554;7.844;2022-09-09T14:59:41;97562.38;;;23.32;41.02